createdAt,value
2023-06-29T00:00:48.190Z,87.53
2023-06-29T00:03:18.851Z,85.91
2023-06-29T00:05:47.312Z,86.44
2023-06-29T00:08:15.290Z,86.42
2023-06-29T00:10:43.502Z,86.99
2023-06-29T00:13:11.370Z,87.74
2023-06-29T00:15:39.425Z,86.50
2023-06-29T00:18:10.255Z,87.29
2023-06-29T00:20:38.489Z,88.83
2023-06-29T00:23:06.467Z,87.76
2023-06-29T00:25:35.025Z,88.43
2023-06-29T00:28:03.615Z,88.47
2023-06-29T00:30:32.038Z,88.37
2023-06-29T00:33:00.008Z,89.26
2023-06-29T00:35:28.244Z,90.57
2023-06-29T00:37:56.384Z,91.58
2023-06-29T00:40:24.919Z,91.01
2023-06-29T00:42:54.287Z,91.21
2023-06-29T00:45:22.401Z,90.42
2023-06-29T00:47:50.934Z,90.59
2023-06-29T00:50:19.126Z,91.16
2023-06-29T00:52:49.024Z,91.01
2023-06-29T00:55:17.055Z,92.16
2023-06-29T00:57:45.243Z,93.25
2023-06-29T01:00:13.712Z,92.38
2023-06-29T01:02:42.527Z,91.88
2023-06-29T01:05:12.539Z,90.84
2023-06-29T01:07:51.604Z,91.00
2023-06-29T01:10:24.964Z,91.20
2023-06-29T01:12:54.772Z,90.67
2023-06-29T01:15:24.170Z,91.38
2023-06-29T01:17:56.290Z,90.99
2023-06-29T01:20:27.401Z,91.83
2023-06-29T01:23:06.498Z,91.86
2023-06-29T01:25:37.467Z,91.24
2023-06-29T01:28:09.775Z,90.55
2023-06-29T01:30:51.243Z,91.13
2023-06-29T01:33:22.880Z,91.44
2023-06-29T01:35:55.217Z,90.34
2023-06-29T01:38:31.792Z,89.49
2023-06-29T01:41:02.741Z,89.49
2023-06-29T01:43:33.068Z,88.64
2023-06-29T01:46:01.261Z,89.72
2023-06-29T01:48:29.729Z,89.80
2023-06-29T01:50:58.218Z,89.60
2023-06-29T01:53:26.225Z,89.52
2023-06-29T01:55:54.199Z,89.64
2023-06-29T01:58:22.386Z,89.25
2023-06-29T02:00:50.739Z,89.36
2023-06-29T02:03:18.690Z,89.63
2023-06-29T02:05:46.848Z,90.92
2023-06-29T02:08:15.176Z,90.80
2023-06-29T02:10:43.291Z,90.49
2023-06-29T02:13:11.430Z,89.60
2023-06-29T02:15:40.316Z,90.77
2023-06-29T02:18:08.400Z,90.80
2023-06-29T02:20:36.455Z,89.81
2023-06-29T02:23:04.428Z,90.68
2023-06-29T02:25:32.468Z,91.42
2023-06-29T02:28:00.526Z,92.11
2023-06-29T02:30:28.490Z,92.17
2023-06-29T02:32:56.577Z,91.85
2023-06-29T02:35:25.089Z,91.44
2023-06-29T02:37:53.219Z,91.91
2023-06-29T02:40:21.675Z,91.38
2023-06-29T02:42:50.469Z,91.01
2023-06-29T02:45:18.557Z,91.61
2023-06-29T02:47:46.646Z,91.48
2023-06-29T02:52:25.687Z,90.87
2023-06-29T02:54:54.076Z,92.33
2023-06-29T02:57:22.346Z,92.03
2023-06-29T02:59:50.480Z,91.16
2023-06-29T03:02:18.764Z,90.35
2023-06-29T03:04:46.902Z,90.68
2023-06-29T03:07:14.946Z,90.29
2023-06-29T03:09:43.006Z,89.82
2023-06-29T03:12:11.381Z,89.09
2023-06-29T03:14:39.394Z,89.05
2023-06-29T03:17:09.416Z,88.52
2023-06-29T03:19:37.610Z,88.97
2023-06-29T03:22:05.738Z,90.01
2023-06-29T03:24:33.898Z,89.00
2023-06-29T03:27:02.079Z,88.43
2023-06-29T03:29:30.224Z,88.85
2023-06-29T03:32:01.233Z,88.67
2023-06-29T03:34:29.349Z,88.43
2023-06-29T03:36:57.532Z,88.36
2023-06-29T03:39:27.337Z,88.54
2023-06-29T03:41:55.527Z,89.09
2023-06-29T03:44:23.704Z,88.88
2023-06-29T03:46:52.823Z,88.56
2023-06-29T03:49:20.999Z,88.52
2023-06-29T03:51:49.127Z,88.41
2023-06-29T03:54:17.469Z,88.56
2023-06-29T03:56:45.537Z,88.39
2023-06-29T03:59:13.532Z,88.48
2023-06-29T04:01:41.515Z,88.05
2023-06-29T04:04:09.704Z,86.74
2023-06-29T04:06:37.847Z,86.67
2023-06-29T04:09:05.804Z,86.73
2023-06-29T04:11:33.808Z,85.92
2023-06-29T04:14:02.014Z,86.48
2023-06-29T04:16:30.308Z,86.64
2023-06-29T04:18:58.664Z,87.17
2023-06-29T04:21:26.880Z,86.41
2023-06-29T04:23:55.082Z,87.48
2023-06-29T04:26:23.841Z,87.53
2023-06-29T04:28:52.140Z,86.49
2023-06-29T04:31:20.360Z,85.72
2023-06-29T04:33:48.521Z,86.56
2023-06-29T04:36:18.763Z,87.71
2023-06-29T04:38:47.376Z,86.73
2023-06-29T04:41:15.347Z,85.83
2023-06-29T04:43:43.673Z,85.87
2023-06-29T04:46:11.637Z,85.10
2023-06-29T04:48:39.833Z,84.70
2023-06-29T04:51:07.928Z,85.22
2023-06-29T04:53:37.073Z,85.64
2023-06-29T04:56:05.247Z,84.96
2023-06-29T04:58:33.257Z,84.65
2023-06-29T05:01:01.853Z,85.04
2023-06-29T05:03:29.954Z,84.84
2023-06-29T05:05:57.853Z,84.02
2023-06-29T05:08:25.903Z,83.39
2023-06-29T05:10:54.246Z,83.03
2023-06-29T05:13:23.725Z,82.76
2023-06-29T05:15:53.163Z,82.75
2023-06-29T05:18:22.067Z,82.52
2023-06-29T05:20:51.374Z,82.25
2023-06-29T05:23:19.929Z,82.45
2023-06-29T05:25:47.920Z,82.67
2023-06-29T05:28:16.212Z,83.56
2023-06-29T05:30:44.140Z,83.25
2023-06-29T05:33:12.202Z,82.73
2023-06-29T05:35:40.269Z,81.79
2023-06-29T05:38:08.452Z,82.36
2023-06-29T05:40:44.080Z,82.66
2023-06-29T05:43:12.289Z,82.45
2023-06-29T05:45:40.477Z,81.15
2023-06-29T05:48:08.438Z,80.48
2023-06-29T05:50:36.610Z,78.74
2023-06-29T05:53:05.480Z,80.11
2023-06-29T05:55:33.544Z,79.48
2023-06-29T05:58:01.514Z,76.45
2023-06-29T06:00:29.467Z,71.68
2023-06-29T06:02:57.766Z,65.61
2023-06-29T06:05:25.902Z,62.62
2023-06-29T06:07:53.890Z,56.64
2023-06-29T06:10:22.042Z,53.47
2023-06-29T06:12:49.983Z,53.58
2023-06-29T06:15:18.131Z,53.81
2023-06-29T06:17:46.124Z,51.62
2023-06-29T06:20:14.527Z,48.81
2023-06-29T06:22:42.588Z,46.31
2023-06-29T06:25:10.530Z,44.88
2023-06-29T06:27:38.600Z,41.72
2023-06-29T06:30:07.676Z,38.91
2023-06-29T06:32:35.767Z,37.88
2023-06-29T06:35:06.082Z,36.73
2023-06-29T06:37:34.345Z,35.41
2023-06-29T06:40:04.641Z,35.30
2023-06-29T06:42:32.619Z,34.43
2023-06-29T06:45:07.309Z,33.02
2023-06-29T06:47:37.121Z,35.12
2023-06-29T06:50:05.846Z,35.74
2023-06-29T06:52:33.912Z,36.85
2023-06-29T06:55:02.715Z,37.60
2023-06-29T06:57:32.715Z,38.79
2023-06-29T07:00:00.552Z,39.57
2023-06-29T07:02:28.648Z,37.72
2023-06-29T07:04:56.691Z,38.72
2023-06-29T07:07:27.861Z,37.03
2023-06-29T07:09:56.264Z,36.50
2023-06-29T07:12:24.346Z,34.52
2023-06-29T07:14:52.380Z,35.10
2023-06-29T07:17:20.466Z,35.61
2023-06-29T07:24:51.594Z,38.72
2023-06-29T07:27:20.010Z,41.17
2023-06-29T07:29:48.645Z,44.09
2023-06-29T07:32:16.977Z,43.51
2023-06-29T07:34:44.936Z,41.69
2023-06-29T07:37:12.912Z,41.56
2023-06-29T07:39:40.861Z,37.46
2023-06-29T07:42:08.910Z,38.46
2023-06-29T07:44:36.882Z,37.52
2023-06-29T07:47:05.592Z,38.21
2023-06-29T07:49:33.822Z,39.17
2023-06-29T07:52:02.083Z,40.18
2023-06-29T07:54:30.125Z,41.09
2023-06-29T07:59:29.079Z,47.22
2023-06-29T08:01:57.081Z,48.35
2023-06-29T08:06:56.121Z,51.12
2023-06-29T08:09:24.273Z,48.71
2023-06-29T08:11:52.452Z,51.48
2023-06-29T08:14:20.415Z,50.92
2023-06-29T08:16:48.687Z,53.50
2023-06-29T08:19:16.918Z,52.11
2023-06-29T08:21:48.807Z,52.25
2023-06-29T08:24:17.844Z,53.97
2023-06-29T08:26:46.199Z,52.75
2023-06-29T08:29:14.372Z,51.15
2023-06-29T08:31:42.458Z,52.86
2023-06-29T08:34:10.620Z,50.28
2023-06-29T08:36:38.712Z,53.61
2023-06-29T08:39:07.016Z,54.06
2023-06-29T08:41:35.887Z,52.04
2023-06-29T08:44:05.850Z,51.97
2023-06-29T08:46:37.593Z,51.75
2023-06-29T08:49:09.135Z,52.14
2023-06-29T08:51:44.868Z,51.72
2023-06-29T08:54:14.136Z,51.43
2023-06-29T08:56:42.732Z,49.40
2023-06-29T08:59:11.094Z,51.42
2023-06-29T09:01:39.601Z,53.73
2023-06-29T09:04:07.865Z,52.27
2023-06-29T09:06:36.049Z,50.96
2023-06-29T09:09:05.167Z,51.93
2023-06-29T09:11:35.661Z,49.43
2023-06-29T09:14:08.459Z,49.12
2023-06-29T09:16:37.479Z,49.06
2023-06-29T09:19:05.894Z,50.54
2023-06-29T09:21:35.012Z,50.05
2023-06-29T09:24:04.797Z,49.80
2023-06-29T09:26:32.976Z,49.11
2023-06-29T09:29:05.110Z,51.48
2023-06-29T09:31:37.157Z,51.50
2023-06-29T09:34:20.247Z,49.82
2023-06-29T09:36:50.040Z,46.46
2023-06-29T09:39:19.070Z,49.54
2023-06-29T09:41:49.090Z,52.08
2023-06-29T09:44:22.193Z,51.28
2023-06-29T09:49:22.707Z,52.02
2023-06-29T09:52:04.772Z,51.38
2023-06-29T09:54:36.543Z,51.87
2023-06-29T09:57:05.323Z,52.61
2023-06-29T09:59:35.470Z,51.64
2023-06-29T10:02:05.448Z,52.63
2023-06-29T10:04:33.721Z,51.40
2023-06-29T10:07:07.986Z,51.93
2023-06-29T10:09:41.097Z,52.86
2023-06-29T10:12:11.779Z,53.21
2023-06-29T10:14:42.779Z,51.14
2023-06-29T10:17:21.334Z,49.35
2023-06-29T10:19:51.380Z,49.18
2023-06-29T10:22:21.659Z,50.71
2023-06-29T10:25:03.246Z,49.99
2023-06-29T10:27:32.581Z,47.90
2023-06-29T10:30:05.668Z,50.41
2023-06-29T10:32:40.256Z,48.52
2023-06-29T10:35:14.020Z,47.89
2023-06-29T10:37:51.939Z,51.07
2023-06-29T10:40:24.515Z,49.87
2023-06-29T10:42:57.580Z,47.09
2023-06-29T10:45:28.407Z,44.66
2023-06-29T10:47:59.516Z,49.07
2023-06-29T10:50:45.172Z,49.43
2023-06-29T10:53:17.942Z,51.15
2023-06-29T10:56:06.239Z,48.12
2023-06-29T10:58:38.831Z,49.24
2023-06-29T11:01:07.029Z,49.23
2023-06-29T11:03:36.410Z,47.00
2023-06-29T11:06:05.643Z,44.75
2023-06-29T11:08:33.977Z,45.35
2023-06-29T11:11:16.015Z,45.36
2023-06-29T11:13:44.290Z,47.70
2023-06-29T11:16:14.191Z,47.33
2023-06-29T11:18:49.560Z,47.24
2023-06-29T11:21:20.861Z,46.78
2023-06-29T11:23:52.476Z,46.39
2023-06-29T11:26:22.098Z,42.90
2023-06-29T11:28:51.214Z,43.65
2023-06-29T11:31:21.107Z,44.75
2023-06-29T11:33:53.547Z,45.66
2023-06-29T11:36:31.463Z,46.90
2023-06-29T11:39:08.795Z,45.86
2023-06-29T11:41:38.801Z,45.94
2023-06-29T11:44:09.109Z,43.50
2023-06-29T11:46:41.190Z,44.86
2023-06-29T11:49:10.437Z,46.45
2023-06-29T11:51:43.569Z,44.96
2023-06-29T11:54:12.015Z,42.90
2023-06-29T11:56:43.889Z,41.88
2023-06-29T11:59:14.237Z,41.47
2023-06-29T12:01:44.831Z,44.51
2023-06-29T12:04:16.387Z,43.92
2023-06-29T12:06:54.853Z,43.43
2023-06-29T12:09:30.743Z,42.26
2023-06-29T12:12:05.750Z,44.89
2023-06-29T12:14:34.882Z,44.19
2023-06-29T12:19:36.218Z,43.20
2023-06-29T12:22:13.638Z,43.15
2023-06-29T12:24:42.156Z,42.75
2023-06-29T12:27:10.161Z,44.41
2023-06-29T12:29:39.891Z,44.14
2023-06-29T12:32:08.842Z,45.18
2023-06-29T12:34:37.059Z,44.62
2023-06-29T12:37:05.232Z,43.63
2023-06-29T12:39:33.239Z,43.38
2023-06-29T12:42:01.868Z,42.09
2023-06-29T12:44:30.179Z,41.12
2023-06-29T12:46:58.694Z,40.36
2023-06-29T12:49:28.166Z,40.79
2023-06-29T12:51:56.426Z,41.75
2023-06-29T12:54:25.671Z,42.70
2023-06-29T12:56:53.685Z,41.67
2023-06-29T12:59:22.097Z,43.71
2023-06-29T13:01:50.880Z,41.96
2023-06-29T13:04:19.876Z,41.35
2023-06-29T13:06:48.171Z,40.73
2023-06-29T13:09:16.684Z,41.87
2023-06-29T13:11:45.855Z,40.54
2023-06-29T13:14:14.703Z,40.38
2023-06-29T13:16:43.263Z,40.47
2023-06-29T13:19:11.400Z,38.87
2023-06-29T13:21:39.380Z,38.18
2023-06-29T13:24:09.431Z,39.22
2023-06-29T13:26:37.844Z,39.26
2023-06-29T13:29:06.113Z,39.24
2023-06-29T13:31:34.288Z,40.27
2023-06-29T13:34:02.576Z,39.30
2023-06-29T13:36:30.831Z,39.85
2023-06-29T13:38:58.932Z,39.95
2023-06-29T13:41:39.779Z,39.60
2023-06-29T13:44:10.615Z,40.42
2023-06-29T13:46:41.966Z,39.51
2023-06-29T13:49:10.084Z,41.30
2023-06-29T13:51:38.330Z,39.91
2023-06-29T13:54:07.583Z,40.87
2023-06-29T13:56:39.241Z,41.08
2023-06-29T13:59:10.151Z,40.08
2023-06-29T14:01:40.885Z,42.16
2023-06-29T14:04:11.751Z,42.42
2023-06-29T14:06:45.860Z,41.52
2023-06-29T14:09:17.496Z,42.92
2023-06-29T14:11:46.115Z,43.04
2023-06-29T14:14:14.259Z,41.66
2023-06-29T14:16:44.315Z,43.17
2023-06-29T14:19:12.877Z,43.68
2023-06-29T14:21:41.722Z,43.57
2023-06-29T14:24:09.820Z,41.90
2023-06-29T14:26:38.498Z,42.16
2023-06-29T14:29:16.755Z,41.16
2023-06-29T14:31:48.118Z,42.78
2023-06-29T14:34:17.460Z,42.19
2023-06-29T14:36:46.416Z,41.83
2023-06-29T14:39:14.998Z,41.34
2023-06-29T14:41:55.117Z,40.51
2023-06-29T14:44:24.824Z,39.90
2023-06-29T14:46:53.515Z,39.69
2023-06-29T14:49:22.081Z,38.87
2023-06-29T14:51:51.037Z,38.48
2023-06-29T14:54:20.583Z,41.07
2023-06-29T14:56:49.196Z,41.10
2023-06-29T14:59:18.063Z,42.06
2023-06-29T15:01:47.076Z,40.99
2023-06-29T15:04:15.609Z,40.94
2023-06-29T15:06:44.798Z,40.88
2023-06-29T15:09:13.516Z,41.07
2023-06-29T15:11:42.089Z,41.62
2023-06-29T15:14:10.430Z,41.17
2023-06-29T15:16:39.278Z,41.91
2023-06-29T15:19:07.312Z,42.34
2023-06-29T15:21:35.471Z,42.52
2023-06-29T15:24:03.584Z,43.47
2023-06-29T15:26:31.636Z,43.38
2023-06-29T15:28:59.950Z,41.75
2023-06-29T15:31:27.907Z,42.98
2023-06-29T15:33:56.379Z,41.14
2023-06-29T15:36:24.769Z,42.76
2023-06-29T15:38:53.628Z,45.07
2023-06-29T15:41:22.190Z,44.50
2023-06-29T15:43:56.411Z,43.05
2023-06-29T15:46:24.443Z,44.07
2023-06-29T15:48:52.472Z,43.69
2023-06-29T15:51:21.916Z,44.15
2023-06-29T15:53:50.499Z,45.03
2023-06-29T15:56:19.999Z,44.38
2023-06-29T15:58:48.140Z,45.47
2023-06-29T16:01:16.641Z,47.56
2023-06-29T16:03:45.337Z,46.71
2023-06-29T16:06:13.751Z,45.13
2023-06-29T16:08:42.569Z,46.90
2023-06-29T16:11:10.943Z,46.76
2023-06-29T16:13:39.461Z,47.30
2023-06-29T16:16:08.099Z,47.16
2023-06-29T16:18:36.813Z,47.09
2023-06-29T16:21:05.616Z,47.26
2023-06-29T16:23:34.455Z,47.42
2023-06-29T16:26:04.008Z,48.68
2023-06-29T16:28:32.959Z,47.19
2023-06-29T16:31:02.573Z,49.29
2023-06-29T16:33:31.333Z,48.22
2023-06-29T16:36:00.205Z,48.80
2023-06-29T16:38:29.112Z,49.34
2023-06-29T16:40:58.132Z,50.73
2023-06-29T16:43:27.085Z,49.42
2023-06-29T16:45:55.234Z,51.39
2023-06-29T16:48:23.967Z,50.69
2023-06-29T16:50:52.597Z,52.07
2023-06-29T16:53:21.169Z,48.93
2023-06-29T16:55:49.881Z,52.97
2023-06-29T16:58:18.826Z,53.68
2023-06-29T17:00:47.804Z,54.38
2023-06-29T17:03:16.149Z,55.27
2023-06-29T17:05:44.868Z,55.08
2023-06-29T17:08:13.814Z,55.04
2023-06-29T17:10:42.279Z,55.30
2023-06-29T17:13:10.732Z,55.96
2023-06-29T17:15:39.795Z,56.70
2023-06-29T17:18:08.508Z,56.69
2023-06-29T17:20:36.821Z,56.69
2023-06-29T17:23:05.284Z,58.05
2023-06-29T17:25:33.622Z,59.02
2023-06-29T17:28:01.933Z,59.72
2023-06-29T17:30:30.203Z,60.66
2023-06-29T17:32:58.843Z,60.84
2023-06-29T17:35:27.745Z,61.79
2023-06-29T17:37:56.254Z,61.94
2023-06-29T17:40:24.656Z,62.73
2023-06-29T17:42:53.404Z,63.52
2023-06-29T17:45:21.619Z,63.96
2023-06-29T17:47:50.040Z,64.85
2023-06-29T17:50:18.659Z,65.06
2023-06-29T17:52:49.977Z,65.08
2023-06-29T17:55:19.770Z,65.20
2023-06-29T17:57:48.532Z,66.01
2023-06-29T18:00:17.831Z,66.64
2023-06-29T18:02:47.076Z,66.74
2023-06-29T18:05:15.901Z,66.89
2023-06-29T18:07:44.326Z,66.83
2023-06-29T18:10:12.637Z,67.38
2023-06-29T18:12:41.181Z,67.96
2023-06-29T18:15:10.352Z,67.89
2023-06-29T18:17:39.312Z,68.52
2023-06-29T18:20:09.029Z,68.51
2023-06-29T18:22:37.775Z,68.38
2023-06-29T18:25:06.300Z,68.18
2023-06-29T18:27:34.523Z,68.10
2023-06-29T18:30:03.007Z,67.76
2023-06-29T18:32:32.361Z,68.32
2023-06-29T18:35:01.137Z,68.69
2023-06-29T18:37:29.537Z,68.58
2023-06-29T18:39:58.155Z,69.00
2023-06-29T18:42:26.497Z,68.95
2023-06-29T18:44:55.081Z,69.58
2023-06-29T18:47:24.061Z,69.65
2023-06-29T18:49:53.304Z,70.14
2023-06-29T18:52:22.161Z,70.77
2023-06-29T18:54:57.018Z,70.00
2023-06-29T18:57:26.221Z,69.55
2023-06-29T18:59:54.815Z,69.70
2023-06-29T19:02:23.441Z,70.23
2023-06-29T19:04:52.174Z,70.52
2023-06-29T19:07:20.909Z,69.99
2023-06-29T19:09:50.830Z,72.22
2023-06-29T19:12:19.469Z,73.09
2023-06-29T19:14:48.205Z,73.64
2023-06-29T19:17:16.918Z,75.28
2023-06-29T19:19:45.540Z,76.36
2023-06-29T19:22:14.372Z,75.54
2023-06-29T19:24:42.739Z,75.42
2023-06-29T19:27:11.431Z,76.17
2023-06-29T19:29:40.818Z,74.65
2023-06-29T19:32:10.440Z,74.91
2023-06-29T19:34:39.193Z,74.48
2023-06-29T19:37:07.888Z,74.83
2023-06-29T19:39:36.527Z,74.83
2023-06-29T19:42:06.836Z,75.52
2023-06-29T19:44:35.523Z,74.92
2023-06-29T19:47:04.944Z,74.92
2023-06-29T19:49:33.820Z,73.53
2023-06-29T19:52:02.652Z,73.01
2023-06-29T19:54:31.084Z,74.11
2023-06-29T19:57:00.338Z,74.74
2023-06-29T19:59:29.376Z,75.19
2023-06-29T20:01:58.707Z,76.62
2023-06-29T20:04:27.579Z,76.02
2023-06-29T20:06:56.555Z,75.57
2023-06-29T20:09:25.266Z,75.23
2023-06-29T20:11:54.356Z,75.25
2023-06-29T20:14:22.996Z,75.54
2023-06-29T20:16:52.340Z,75.81
2023-06-29T20:19:20.720Z,76.00
2023-06-29T20:21:49.270Z,77.33
2023-06-29T20:24:17.747Z,76.89
2023-06-29T20:26:46.498Z,76.21
2023-06-29T20:29:16.624Z,76.70
2023-06-29T20:31:45.333Z,76.49
2023-06-29T20:34:15.286Z,76.54
2023-06-29T20:36:43.795Z,76.76
2023-06-29T20:39:12.330Z,76.94
2023-06-29T20:41:40.850Z,75.67
2023-06-29T20:44:15.608Z,75.59
2023-06-29T20:46:44.434Z,75.02
2023-06-29T20:49:12.785Z,74.87
2023-06-29T20:51:40.758Z,75.19
2023-06-29T20:54:09.351Z,76.02
2023-06-29T20:56:37.999Z,77.71
2023-06-29T20:59:06.426Z,78.82
2023-06-29T21:01:37.596Z,79.12
2023-06-29T21:04:05.923Z,80.13
2023-06-29T21:06:35.563Z,80.07
2023-06-29T21:09:04.936Z,79.82
2023-06-29T21:11:38.728Z,78.20
2023-06-29T21:14:09.710Z,77.64
2023-06-29T21:16:40.380Z,78.06
2023-06-29T21:19:09.344Z,77.98
2023-06-29T21:21:38.108Z,77.70
2023-06-29T21:24:07.078Z,78.20
2023-06-29T21:26:35.194Z,77.63
2023-06-29T21:29:17.378Z,78.15
2023-06-29T21:31:53.276Z,78.12
2023-06-29T21:34:21.761Z,78.49
2023-06-29T21:36:50.184Z,77.80
2023-06-29T21:39:18.267Z,77.59
2023-06-29T21:41:46.400Z,77.26
2023-06-29T21:44:14.349Z,76.58
2023-06-29T21:46:42.425Z,77.69
2023-06-29T21:49:10.642Z,76.96
2023-06-29T21:51:38.960Z,77.79
2023-06-29T21:54:09.666Z,76.92
2023-06-29T21:56:39.322Z,76.53
2023-06-29T21:59:07.839Z,76.73
2023-06-29T22:01:35.943Z,76.81
2023-06-29T22:04:04.137Z,77.08
2023-06-29T22:06:32.488Z,77.27
2023-06-29T22:09:04.367Z,76.83
2023-06-29T22:11:32.745Z,77.58
2023-06-29T22:14:01.203Z,78.03
2023-06-29T22:16:30.083Z,78.77
2023-06-29T22:18:59.973Z,78.78
2023-06-29T22:21:28.501Z,78.82
2023-06-29T22:23:56.996Z,78.69
2023-06-29T22:26:25.868Z,77.86
2023-06-29T22:28:54.077Z,77.22
2023-06-29T22:31:22.284Z,77.87
2023-06-29T22:33:50.423Z,77.71
2023-06-29T22:36:19.549Z,76.93
2023-06-29T22:38:47.813Z,77.87
2023-06-29T22:41:15.823Z,77.34
2023-06-29T22:43:43.964Z,77.40
2023-06-29T22:46:11.989Z,77.67
2023-06-29T22:48:39.966Z,77.97
2023-06-29T22:51:08.150Z,77.14
2023-06-29T22:53:36.056Z,77.76
2023-06-29T22:56:04.207Z,78.37
2023-06-29T22:58:32.190Z,77.64
2023-06-29T23:01:00.220Z,78.42
2023-06-29T23:03:28.293Z,77.50
2023-06-29T23:05:56.533Z,78.03
2023-06-29T23:08:26.853Z,77.76
2023-06-29T23:10:54.891Z,77.48
2023-06-29T23:13:25.728Z,77.58
2023-06-29T23:15:53.811Z,77.37
2023-06-29T23:18:21.855Z,77.72
2023-06-29T23:20:49.823Z,78.58
2023-06-29T23:23:17.917Z,79.30
2023-06-29T23:25:46.370Z,79.29
2023-06-29T23:28:17.092Z,79.42
2023-06-29T23:30:45.334Z,78.60
2023-06-29T23:33:13.242Z,78.07
2023-06-29T23:35:41.365Z,78.08
2023-06-29T23:38:09.671Z,77.96
2023-06-29T23:40:37.993Z,77.82
2023-06-29T23:43:06.326Z,77.91
2023-06-29T23:45:37.113Z,78.10
2023-06-29T23:48:05.639Z,78.05
2023-06-29T23:50:33.595Z,77.71
2023-06-29T23:53:01.622Z,78.28
2023-06-29T23:55:29.724Z,78.41
2023-06-29T23:57:58.082Z,78.71
